Bradshaw Army Airfield Camp Pohakuloa US
ICAO: PHSF
IATA:
Category: Medium
Scheduled Services:

Elevation: 6190 ft
TransAlt. 18000 ft.

Airport Communications:
HONOLULU CNTR:126
ATIS:124.7
CTAF:126.3
RANGE:38.3
PMSV METRO:122.75
HONOLULU RDO:25.54
TWR:41.5

PHSF Zoom In..

If you have problems with the map follow the link
https://www.worldairports.se/pages/airport.php?
ICAO=PHSF

Runways:

(A) RW 09 length 3695 ft width 90 ft
---- / hdg 91

(B) RW 27 length 3695 ft width 90 ft
---- / hdg 271

Location; PHSF
Day. 20 / Time. 20.56 Zulu
* Altimeter: 30.33
* Temperature: 20° c. 68°f.
* Wind from: 000° Speed 00 kn.
Dewpoint: 09° c.
Visibility: 10 Statute Miles.
Clouds: Few 3500 ft.
Clouds: Broken 6000 ft.

PHSF 202056Z AUTO 00000KT 10SM FEW035 BKN060 20/09 A3033 RMK AO2 SLP153 WND DATA ESTMD T01950089 51009 $


Wind - Calm.

 
 
jpsmedia.com for Web Design worldairports.se 2019   terms of use